Time;durP1;ratioP1;P1;durP2;ratioP2;P2;SDS_P1;SDS_P2;PMS_P1;PMS_P2;Temp;Humidity;BMP_temperature;BMP_pressure;BME280_temperature;BME280_humidity;BME280_pressure;Samples;Min_cycle;Max_cycle;Signal;HPM_P1;HPM_P2
2023/05/28 00:01:01;;;;;;;22.65;8.95;;;15.10;99.90;;;14.57;100.00;101434.84;4168242;28;20025;-72
2023/05/28 00:03:01;;;;;;;19.40;7.82;;;15.10;99.90;;;14.32;100.00;101396.81;4185995;28;20398;-72
2023/05/28 00:05:04;;;;;;;18.20;8.15;;;15.00;99.90;;;14.47;100.00;101422.69;4184406;28;20032;-72
2023/05/28 00:07:06;;;;;;;18.63;9.35;;;15.00;99.90;;;14.38;100.00;101412.06;4185831;28;20039;-72
2023/05/28 00:09:09;;;;;;;21.73;9.77;;;14.90;99.90;;;14.43;100.00;101432.81;4185797;28;20021;-72
2023/05/28 00:11:10;;;;;;;21.08;8.90;;;14.90;99.90;;;14.38;100.00;101414.72;4185643;28;20039;-72
2023/05/28 00:13:11;;;;;;;21.30;8.63;;;14.90;99.90;;;14.42;100.00;101425.03;4184184;28;20424;-72
2023/05/28 00:15:11;;;;;;;20.60;8.82;;;14.90;99.90;;;14.43;100.00;101429.31;4201143;28;20112;-72
2023/05/28 00:17:13;;;;;;;24.42;8.65;;;14.90;99.90;;;14.42;100.00;101422.38;4183900;28;20025;-72
2023/05/28 00:19:14;;;;;;;20.38;9.75;;;14.90;99.90;;;14.38;100.00;101422.69;4182798;28;20074;-72
2023/05/28 00:21:15;;;;;;;17.98;7.97;;;14.90;99.90;;;14.37;100.00;101415.72;4184353;28;20370;-72
2023/05/28 00:23:16;;;;;;;23.40;8.65;;;14.90;99.90;;;14.29;100.00;101404.22;4184299;28;20115;-71
2023/05/28 00:25:17;;;;;;;14.77;8.18;;;14.80;99.90;;;14.20;100.00;101395.44;4185649;28;20025;-71
2023/05/28 00:27:18;;;;;;;19.08;8.60;;;14.80;99.90;;;14.29;100.00;101407.72;4184318;28;20040;-75
2023/05/28 00:29:20;;;;;;;20.70;7.68;;;14.80;99.90;;;14.31;100.00;101415.50;4169819;28;20029;-75
2023/05/28 00:31:21;;;;;;;23.27;9.77;;;14.80;99.90;;;14.29;100.00;101417.50;4171880;28;20029;-73
2023/05/28 00:33:22;;;;;;;22.45;9.13;;;14.80;99.90;;;14.20;100.00;101394.59;4185559;28;20021;-73
2023/05/28 00:35:22;;;;;;;24.75;9.57;;;14.80;99.90;;;14.15;100.00;101379.19;4185431;28;20025;-73
2023/05/28 00:37:23;;;;;;;18.20;8.65;;;14.80;99.90;;;14.27;100.00;101400.91;4185371;28;20075;-72
2023/05/28 00:39:24;;;;;;;20.73;8.57;;;14.80;99.90;;;14.16;100.00;101398.56;4184303;28;20041;-72
2023/05/28 00:41:25;;;;;;;25.05;9.07;;;14.70;99.90;;;14.15;100.00;101395.09;4185425;28;20032;-72
2023/05/28 00:43:26;;;;;;;25.67;9.30;;;14.70;99.90;;;14.21;100.00;101398.91;4171048;28;20538;-72
2023/05/28 00:45:27;;;;;;;21.50;9.32;;;14.70;99.90;;;14.17;100.00;101390.44;4168854;28;20025;-73
2023/05/28 00:47:28;;;;;;;18.80;9.20;;;14.80;99.90;;;14.14;100.00;101393.44;4167468;28;20036;-72
2023/05/28 00:49:30;;;;;;;21.02;9.55;;;14.70;99.90;;;14.14;100.00;101390.78;4168694;28;20450;-74
2023/05/28 00:51:31;;;;;;;25.33;9.52;;;14.70;99.90;;;14.02;100.00;101376.16;4167441;28;20048;-73
2023/05/28 00:53:32;;;;;;;22.17;9.63;;;14.70;99.90;;;14.06;100.00;101384.63;4168663;28;20017;-71
2023/05/28 00:55:34;;;;;;;22.05;8.70;;;14.60;99.90;;;14.06;100.00;101382.81;4168535;28;20037;-71
2023/05/28 00:57:36;;;;;;;24.55;8.27;;;14.70;99.90;;;14.01;100.00;101385.09;4168491;28;20033;-71
2023/05/28 00:59:37;;;;;;;21.02;7.47;;;14.60;99.90;;;13.99;100.00;101386.25;4174967;28;20108;-71
2023/05/28 01:01:39;;;;;;;21.67;9.07;;;14.60;99.90;;;13.97;100.00;101389.09;4172663;28;20025;-71
2023/05/28 01:03:41;;;;;;;19.48;8.73;;;14.60;99.90;;;13.93;100.00;101381.59;4183322;28;20492;-71
2023/05/28 01:05:42;;;;;;;20.23;8.60;;;14.50;99.90;;;13.88;100.00;101382.09;4172926;28;20033;-71
2023/05/28 01:07:43;;;;;;;18.55;7.85;;;14.50;99.90;;;13.82;100.00;101377.44;4178714;28;20028;-71
2023/05/28 01:09:44;;;;;;;24.17;9.25;;;14.50;99.90;;;13.75;100.00;101371.94;4185048;28;20443;-71
2023/05/28 01:11:50;;;;;;;27.20;9.63;;;14.40;99.90;;;13.72;100.00;101369.63;4185038;28;20025;-71
2023/05/28 01:13:52;;;;;;;18.67;7.97;;;14.40;99.90;;;13.74;100.00;101372.09;4183694;28;20032;-72
2023/05/28 01:15:53;;;;;;;26.83;9.93;;;14.30;99.90;;;13.67;100.00;101361.31;4184021;28;20044;-72
2023/05/28 01:18:00;;;;;;;19.90;8.32;;;14.30;99.90;;;13.68;100.00;101362.13;4183724;28;20021;-72
2023/05/28 01:20:10;;;;;;;25.80;9.45;;;14.30;99.90;;;13.65;100.00;101367.78;4183855;28;20112;-72
2023/05/28 01:22:17;;;;;;;24.02;9.38;;;14.30;99.90;;;13.78;100.00;101386.69;4183598;28;20087;-72
2023/05/28 01:24:18;;;;;;;19.42;10.43;;;14.30;99.90;;;13.64;100.00;101361.66;4171275;28;20177;-72
2023/05/28 01:26:19;;;;;;;21.05;8.32;;;14.30;99.90;;;13.66;100.00;101367.59;4171092;28;20037;-72
2023/05/28 01:28:21;;;;;;;23.08;9.32;;;14.20;99.90;;;13.65;100.00;101365.13;4168330;28;20083;-72
2023/05/28 01:30:22;;;;;;;24.92;9.05;;;14.20;99.90;;;13.65;100.00;101365.13;4172340;28;20056;-72
2023/05/28 01:32:24;;;;;;;22.80;9.30;;;14.20;99.90;;;13.60;100.00;101354.16;4165870;28;20044;-72
2023/05/28 01:34:25;;;;;;;24.65;9.82;;;14.20;99.90;;;13.55;100.00;101351.16;4170575;28;20040;-73
2023/05/28 01:36:37;;;;;;;23.33;9.68;;;14.20;99.90;;;13.60;100.00;101354.16;4172622;28;20080;-72
2023/05/28 01:38:43;;;;;;;27.75;9.63;;;14.20;99.90;;;13.69;100.00;101375.25;4171662;28;20029;-73
2023/05/28 01:40:46;;;;;;;19.70;8.90;;;14.20;99.90;;;13.66;100.00;101372.06;4170344;28;20029;-73
2023/05/28 01:42:49;;;;;;;19.23;9.13;;;14.20;99.90;;;13.56;100.00;101366.91;4179999;28;20567;-73
2023/05/28 01:44:51;;;;;;;26.83;9.55;;;14.20;99.90;;;13.45;100.00;101351.28;4187041;28;20099;-72
2023/05/28 01:46:54;;;;;;;25.23;9.63;;;14.10;99.90;;;13.45;100.00;101356.59;4186838;28;20469;-74
2023/05/28 01:48:55;;;;;;;20.35;9.98;;;14.10;99.90;;;13.52;100.00;101372.69;4187932;28;20032;-76
2023/05/28 01:50:56;;;;;;;22.38;9.48;;;14.00;99.90;;;13.45;100.00;101358.41;4186490;28;20037;-75
2023/05/28 01:52:57;;;;;;;23.20;8.40;;;14.00;99.90;;;13.37;100.00;101340.66;4203676;28;20091;-75
2023/05/28 01:54:58;;;;;;;22.73;9.20;;;14.00;99.90;;;13.35;100.00;101352.41;4188148;28;20381;-75
2023/05/28 01:57:00;;;;;;;21.27;8.60;;;14.00;99.90;;;13.38;100.00;101366.16;4186558;28;20040;-75
2023/05/28 01:59:02;;;;;;;17.33;8.75;;;14.00;99.90;;;13.40;100.00;101363.38;4186549;28;20040;-74
2023/05/28 02:01:27;;;;;;;19.85;9.50;;;14.00;99.90;;;13.26;100.00;101343.59;4186737;28;20033;-74
2023/05/28 02:03:28;;;;;;;17.55;9.18;;;14.00;99.90;;;13.37;100.00;101382.22;4175535;28;20025;-74
2023/05/28 02:05:29;;;;;;;24.10;9.77;;;13.90;99.90;;;13.25;100.00;101356.03;4173989;28;20037;-74
2023/05/28 02:07:30;;;;;;;19.83;8.60;;;13.90;99.90;;;13.19;100.00;101346.06;4179545;28;20039;-74
2023/05/28 02:09:31;;;;;;;22.02;8.60;;;13.90;99.90;;;13.22;100.00;101352.84;4187718;28;20476;-74
2023/05/28 02:11:32;;;;;;;22.48;9.63;;;13.90;99.90;;;13.31;100.00;101375.75;4187573;28;20028;-74
2023/05/28 02:13:33;;;;;;;19.58;9.13;;;13.90;99.90;;;13.15;100.00;101352.66;4187481;28;20032;-77
2023/05/28 02:15:34;;;;;;;17.92;9.27;;;13.80;99.90;;;13.06;100.00;101345.59;4186366;28;20029;-72
2023/05/28 02:17:35;;;;;;;20.23;8.52;;;13.80;99.90;;;13.16;100.00;101356.97;4202944;28;20029;-72
2023/05/28 02:19:36;;;;;;;19.88;9.30;;;13.80;99.90;;;13.20;100.00;101371.53;4187615;28;20021;-71
2023/05/28 02:21:37;;;;;;;26.58;11.43;;;13.80;99.90;;;13.20;100.00;101368.88;4186218;28;20037;-71
2023/05/28 02:23:48;;;;;;;25.67;10.43;;;13.70;99.90;;;13.17;100.00;101376.34;4187615;28;20439;-74
2023/05/28 02:25:49;;;;;;;17.98;9.20;;;13.70;99.90;;;13.06;100.00;101360.66;4186267;28;20025;-73
2023/05/28 02:27:49;;;;;;;26.13;10.00;;;13.70;99.90;;;13.16;100.00;101377.31;4185742;28;20079;-74
2023/05/28 02:29:50;;;;;;;18.88;8.90;;;13.70;99.90;;;13.10;100.00;101372.66;4202977;28;20078;-74
2023/05/28 02:31:51;;;;;;;27.10;9.55;;;13.70;99.90;;;13.11;100.00;101380.44;4186120;28;20021;-75
2023/05/28 02:33:52;;;;;;;22.13;8.98;;;13.70;99.90;;;13.10;100.00;101384.09;4171996;28;20075;-75
2023/05/28 02:35:54;;;;;;;19.83;9.43;;;13.60;99.90;;;12.89;100.00;101354.44;4185786;28;20017;-75
2023/05/28 02:37:55;;;;;;;17.10;9.05;;;13.60;99.90;;;12.91;100.00;101357.75;4169702;28;20036;-75
2023/05/28 02:39:55;;;;;;;22.77;10.10;;;13.60;99.90;;;12.87;100.00;101361.72;4181687;28;20017;-75
2023/05/28 02:41:56;;;;;;;20.98;8.02;;;13.60;99.90;;;12.98;100.00;101372.06;4177964;28;20025;-75
2023/05/28 02:43:57;;;;;;;21.75;9.65;;;13.50;99.90;;;12.89;100.00;101366.84;4172103;28;20493;-75
2023/05/28 02:45:58;;;;;;;25.17;9.35;;;13.50;99.90;;;12.74;100.00;101353.34;4173850;28;20028;-75
2023/05/28 02:47:59;;;;;;;22.75;8.88;;;13.50;99.90;;;12.77;100.00;101361.81;4169219;28;20087;-74
2023/05/28 02:50:00;;;;;;;21.55;8.98;;;13.50;99.90;;;12.78;100.00;101365.31;4172987;28;20488;-74
2023/05/28 02:52:01;;;;;;;24.25;10.43;;;13.40;99.90;;;12.84;100.00;101377.94;4170682;28;20039;-73
2023/05/28 02:54:02;;;;;;;27.15;9.68;;;13.40;99.90;;;12.71;100.00;101364.25;4183028;28;20079;-75
2023/05/28 02:56:03;;;;;;;24.95;8.82;;;13.40;99.90;;;12.69;100.00;101359.09;4160071;28;20500;-74
2023/05/28 02:58:05;;;;;;;24.00;9.18;;;13.30;99.90;;;12.68;100.00;101359.28;4172183;28;20038;-74
2023/05/28 03:00:09;;;;;;;22.27;8.73;;;13.30;99.90;;;12.57;100.00;101349.75;4170297;28;20112;-78
2023/05/28 03:02:10;;;;;;;21.02;9.10;;;13.30;99.90;;;12.55;100.00;101346.44;4170481;28;20033;-77
2023/05/28 03:04:11;;;;;;;25.52;9.57;;;13.20;99.90;;;12.66;100.00;101375.28;4176126;28;20036;-77
2023/05/28 03:06:13;;;;;;;24.60;10.23;;;13.30;99.90;;;12.47;100.00;101341.09;4175768;28;20512;-77
2023/05/28 03:08:15;;;;;;;22.75;9.00;;;13.20;99.90;;;12.45;100.00;101351.00;4171457;28;20025;-77
2023/05/28 03:10:15;;;;;;;25.77;9.63;;;13.20;99.90;;;12.56;100.00;101371.91;4186850;28;20054;-77
2023/05/28 03:12:16;;;;;;;21.65;9.13;;;13.10;99.90;;;12.52;100.00;101370.56;4183223;28;20022;-77
2023/05/28 03:14:17;;;;;;;25.70;9.00;;;13.10;99.90;;;12.38;100.00;101349.09;4176497;28;20032;-77
2023/05/28 03:16:18;;;;;;;20.90;8.50;;;13.00;99.90;;;12.31;100.00;101348.03;4186566;28;20028;-75
2023/05/28 03:18:19;;;;;;;25.10;9.15;;;13.00;99.90;;;12.25;100.00;101343.34;4182473;28;20555;-75
2023/05/28 03:20:20;;;;;;;25.65;10.02;;;13.00;99.90;;;12.26;100.00;101345.88;4170281;28;20049;-75
2023/05/28 03:22:21;;;;;;;21.95;8.85;;;12.90;99.90;;;12.22;100.00;101355.06;4170257;28;20052;-74
2023/05/28 03:24:22;;;;;;;21.13;8.15;;;12.90;99.90;;;12.20;100.00;101352.59;4170006;28;20036;-74
2023/05/28 03:26:23;;;;;;;18.35;9.18;;;12.90;99.90;;;12.29;100.00;101377.31;4170151;28;20060;-74
2023/05/28 03:28:23;;;;;;;26.27;9.77;;;12.80;99.90;;;12.24;100.00;101374.28;4173735;28;20025;-75
2023/05/28 03:30:24;;;;;;;21.73;9.90;;;12.80;99.90;;;12.21;100.00;101370.09;4171143;28;20041;-75
2023/05/28 03:32:25;;;;;;;25.30;8.93;;;12.80;99.90;;;12.08;100.00;101350.31;4170000;28;20508;-75
2023/05/28 03:34:26;;;;;;;16.73;8.70;;;12.70;99.90;;;12.00;100.00;101345.81;4169750;28;20021;-75
2023/05/28 03:36:27;;;;;;;26.45;9.50;;;12.70;99.90;;;11.99;100.00;101346.78;4185051;28;20052;-75
2023/05/28 03:38:28;;;;;;;18.73;8.38;;;12.70;99.90;;;12.08;100.00;101368.84;4176429;28;20025;-75
2023/05/28 03:40:28;;;;;;;20.52;9.13;;;12.60;99.90;;;11.93;100.00;101349.19;4169886;28;20025;-75
2023/05/28 03:42:29;;;;;;;23.55;8.40;;;12.60;99.90;;;11.87;100.00;101344.50;4184046;28;20036;-75
2023/05/28 03:44:30;;;;;;;31.58;10.07;;;12.60;99.90;;;11.89;100.00;101364.50;4185067;28;20044;-75
2023/05/28 03:46:32;;;;;;;26.48;9.48;;;12.60;99.90;;;11.83;100.00;101351.88;4172074;28;20029;-75
2023/05/28 03:48:33;;;;;;;23.23;9.40;;;12.50;99.90;;;11.76;100.00;101344.72;4182734;28;20087;-75
2023/05/28 03:50:34;;;;;;;24.60;9.43;;;12.50;99.90;;;11.92;100.00;101374.78;4185768;28;20056;-75
2023/05/28 03:52:35;;;;;;;24.17;9.57;;;12.50;99.90;;;11.89;100.00;101377.72;4185971;28;20476;-75
2023/05/28 03:54:36;;;;;;;23.27;9.30;;;12.40;99.90;;;11.76;100.00;101358.75;4186064;28;20036;-75
2023/05/28 03:56:39;;;;;;;27.33;9.27;;;12.40;99.90;;;11.70;100.00;101359.34;4186049;28;20067;-75
2023/05/28 03:58:40;;;;;;;24.25;10.13;;;12.40;99.90;;;11.64;100.00;101357.28;4168691;28;20052;-75
2023/05/28 04:00:41;;;;;;;22.88;9.43;;;12.40;99.90;;;11.72;100.00;101367.97;4168149;28;20045;-75
2023/05/28 04:02:42;;;;;;;26.35;9.80;;;12.40;99.90;;;11.68;100.00;101370.03;4178656;28;20388;-75
2023/05/28 04:04:42;;;;;;;21.65;7.93;;;12.30;99.90;;;11.59;100.00;101365.63;4184568;28;20426;-74
2023/05/28 04:06:43;;;;;;;22.42;10.35;;;12.30;99.90;;;11.71;100.00;101384.78;4173404;28;20086;-75
2023/05/28 04:08:44;;;;;;;19.30;9.45;;;12.30;99.90;;;11.62;100.00;101367.97;4185791;28;20032;-75
2023/05/28 04:10:45;;;;;;;21.08;9.32;;;12.20;99.90;;;11.64;100.00;101376.59;4184834;28;20033;-75
2023/05/28 04:12:46;;;;;;;20.95;8.82;;;12.20;99.90;;;11.59;100.00;101364.78;4184497;28;20021;-74
2023/05/28 04:14:47;;;;;;;20.75;8.90;;;12.20;99.90;;;11.53;100.00;101365.38;4200990;28;20496;-74
2023/05/28 04:16:48;;;;;;;25.67;9.05;;;12.20;99.90;;;11.55;100.00;101363.44;4184738;28;20025;-74
2023/05/28 04:18:50;;;;;;;19.30;8.15;;;12.20;99.90;;;11.52;100.00;101361.09;4151794;28;20030;-74
2023/05/28 04:20:51;;;;;;;23.15;8.73;;;12.20;99.90;;;11.51;100.00;101364.69;4184652;28;20025;-74
2023/05/28 04:22:52;;;;;;;26.60;10.18;;;12.20;99.90;;;11.52;100.00;101363.72;4181563;28;20078;-74
2023/05/28 04:24:55;;;;;;;20.33;8.82;;;12.20;99.90;;;11.54;100.00;101377.63;4167611;28;20045;-74
2023/05/28 04:26:56;;;;;;;23.73;8.50;;;12.20;99.90;;;11.51;100.00;101370.81;4177248;28;20096;-73
2023/05/28 04:28:59;;;;;;;21.63;9.00;;;12.20;99.90;;;11.62;100.00;101388.28;4156273;28;20421;-73
2023/05/28 04:31:01;;;;;;;22.30;9.38;;;12.20;99.90;;;11.56;100.00;101375.66;4176525;28;20017;-73
2023/05/28 04:33:02;;;;;;;25.23;10.00;;;12.20;99.90;;;11.60;100.00;101384.97;4156938;28;20029;-73
2023/05/28 04:35:04;;;;;;;23.65;9.38;;;12.20;99.90;;;11.62;100.00;101386.47;4184200;28;20078;-73
2023/05/28 04:37:05;;;;;;;24.27;9.05;;;12.20;99.90;;;11.64;100.00;101383.69;4179586;28;20095;-73
2023/05/28 04:39:06;;;;;;;18.27;7.85;;;12.20;99.90;;;11.56;100.00;101368.56;4170557;28;20025;-74
2023/05/28 04:41:08;;;;;;;21.73;8.48;;;12.20;99.90;;;11.68;100.00;101392.97;4168959;28;20037;-74
2023/05/28 04:43:09;;;;;;;28.25;9.50;;;12.20;99.90;;;11.68;100.00;101392.16;4173821;28;20052;-74
2023/05/28 04:45:11;;;;;;;20.55;8.95;;;12.20;99.90;;;11.49;100.00;101364.03;4178968;28;20032;-77
2023/05/28 04:47:13;;;;;;;19.17;7.63;;;12.30;99.90;;;11.66;100.00;101394.94;4193008;28;20060;-77
2023/05/28 04:49:13;;;;;;;24.10;9.20;;;12.30;99.90;;;11.73;100.00;101398.72;4163328;28;20136;-77
2023/05/28 04:51:14;;;;;;;17.40;7.32;;;12.30;99.90;;;11.67;100.00;101386.03;4172403;28;20049;-74
2023/05/28 04:53:15;;;;;;;22.60;8.05;;;12.30;99.90;;;11.68;100.00;101387.69;4174110;28;20056;-75
2023/05/28 04:55:16;;;;;;;17.48;7.82;;;12.30;99.90;;;11.76;100.00;101401.06;4181826;28;20396;-76
2023/05/28 04:57:17;;;;;;;21.10;9.02;;;12.30;99.90;;;11.81;100.00;101400.59;4180890;28;20029;-75
2023/05/28 04:59:18;;;;;;;16.65;7.18;;;12.40;99.90;;;11.70;100.00;101374.38;4168855;28;20034;-74
2023/05/28 05:01:19;;;;;;;19.60;9.32;;;12.40;99.90;;;11.84;100.00;101402.94;4167597;28;20033;-74
2023/05/28 05:03:20;;;;;;;25.30;9.82;;;12.40;99.90;;;11.80;100.00;101388.38;4181158;28;20405;-75
2023/05/28 05:05:21;;;;;;;19.15;8.10;;;12.40;99.90;;;11.87;100.00;101403.50;4160697;28;20037;-75
2023/05/28 05:07:22;;;;;;;22.92;8.43;;;12.40;99.90;;;11.88;100.00;101394.59;4175888;28;20029;-75
2023/05/28 05:09:23;;;;;;;13.65;7.30;;;12.40;99.90;;;11.89;100.00;101401.50;4174759;28;20485;-75
2023/05/28 05:11:26;;;;;;;23.88;8.45;;;12.40;99.90;;;11.84;100.00;101392.38;4181009;28;20086;-76
2023/05/28 05:13:26;;;;;;;18.98;7.18;;;12.50;99.90;;;11.92;100.00;101403.88;4167274;28;20032;-76
2023/05/28 05:15:27;;;;;;;27.15;8.20;;;12.50;99.90;;;11.97;100.00;101406.91;4167263;28;20418;-76
2023/05/28 05:17:28;;;;;;;16.48;7.20;;;12.50;99.90;;;12.01;100.00;101404.78;4161113;28;20021;-77
2023/05/28 05:19:29;;;;;;;16.80;7.22;;;12.50;99.90;;;12.03;100.00;101408.13;4179988;28;20021;-75
2023/05/28 05:21:31;;;;;;;24.90;8.18;;;12.50;99.90;;;12.07;100.00;101414.75;4183749;28;20029;-75
2023/05/28 05:23:32;;;;;;;20.92;7.90;;;12.60;99.90;;;12.09;100.00;101411.00;4194034;28;20067;-75
2023/05/28 05:25:33;;;;;;;20.13;8.35;;;12.60;99.90;;;12.12;100.00;101407.22;4168666;28;20108;-73
2023/05/28 05:27:36;;;;;;;23.80;8.77;;;12.60;99.90;;;12.02;100.00;101383.50;4175113;28;20036;-73
2023/05/28 05:29:37;;;;;;;18.55;8.77;;;12.60;99.90;;;12.06;100.00;101392.81;4168321;28;20022;-73
2023/05/28 05:31:38;;;;;;;15.98;7.15;;;12.70;99.90;;;12.14;100.00;101395.53;4168648;28;20033;-73
2023/05/28 05:33:40;;;;;;;22.85;8.38;;;12.70;99.90;;;12.25;100.00;101405.03;4168437;28;20049;-76
2023/05/28 05:35:41;;;;;;;19.75;8.02;;;12.70;99.90;;;12.26;100.00;101406.72;4168510;28;20026;-75
2023/05/28 05:37:42;;;;;;;16.08;7.90;;;12.80;99.90;;;12.28;100.00;101406.53;4171200;28;20437;-75
2023/05/28 05:39:43;;;;;;;30.75;9.70;;;12.80;99.90;;;12.15;100.00;101383.13;4168509;28;20037;-76
2023/05/28 05:41:44;;;;;;;20.48;8.05;;;12.80;99.90;;;12.26;100.00;101392.66;4183782;28;20222;-75
2023/05/28 05:43:45;;;;;;;23.80;8.27;;;12.90;99.90;;;12.39;100.00;101411.63;4171066;28;20046;-75
2023/05/28 05:45:46;;;;;;;22.02;9.23;;;12.90;99.90;;;12.41;100.00;101405.19;4175725;28;20496;-74
2023/05/28 05:47:47;;;;;;;19.70;8.60;;;12.90;99.90;;;12.45;100.00;101411.03;4171326;28;20378;-76
2023/05/28 05:49:47;;;;;;;21.00;7.10;;;13.00;99.90;;;12.42;100.00;101387.50;4175552;28;20041;-76
2023/05/28 05:51:48;;;;;;;18.08;7.13;;;13.00;99.90;;;12.45;100.00;101388.03;4168534;28;20545;-76
2023/05/28 05:53:49;;;;;;;17.90;7.78;;;13.10;99.90;;;12.60;100.00;101407.66;4168213;28;20018;-76
2023/05/28 05:55:51;;;;;;;27.98;8.30;;;13.10;99.90;;;12.61;100.00;101395.28;4167224;28;20032;-76
2023/05/28 05:57:52;;;;;;;19.35;7.30;;;13.20;99.90;;;12.58;100.00;101392.94;4171946;28;20108;-76
2023/05/28 05:59:54;;;;;;;13.05;6.80;;;13.20;99.90;;;12.68;100.00;101402.47;4168264;28;20029;-76
2023/05/28 06:01:55;;;;;;;22.48;7.93;;;13.20;99.90;;;12.68;100.00;101393.69;4181722;28;20087;-76
2023/05/28 06:03:56;;;;;;;22.42;8.00;;;13.30;99.90;;;12.81;100.00;101410.00;4168242;28;20029;-77
2023/05/28 06:05:57;;;;;;;14.00;7.07;;;13.30;99.90;;;12.88;100.00;101405.75;4173655;28;20026;-76
2023/05/28 06:07:58;;;;;;;22.23;7.55;;;13.40;99.90;;;12.89;100.00;101396.81;4180440;28;20493;-77
2023/05/28 06:09:59;;;;;;;21.00;8.05;;;13.40;99.90;;;12.94;100.00;101405.13;4167896;28;20064;-77
2023/05/28 06:12:01;;;;;;;17.95;7.93;;;13.50;99.90;;;12.88;100.00;101379.25;4168164;28;20064;-77
2023/05/28 06:14:02;;;;;;;20.27;7.90;;;13.50;99.90;;;13.04;100.00;101395.28;4167910;28;20025;-78
2023/05/28 06:16:04;;;;;;;18.00;6.97;;;13.50;99.90;;;13.07;100.00;101384.38;4170116;28;20052;-79
2023/05/28 06:18:05;;;;;;;21.05;8.23;;;13.60;99.90;;;13.01;100.00;101374.41;4169580;28;20029;-81
2023/05/28 06:20:07;;;;;;;15.00;7.03;;;13.70;99.90;;;13.21;100.00;101397.06;4164636;28;20061;-81
2023/05/28 06:22:10;;;;;;;19.88;7.57;;;13.70;99.90;;;13.22;100.00;101363.44;4195260;28;20106;-81
2023/05/28 06:24:11;;;;;;;17.93;7.33;;;13.80;99.90;;;13.32;100.00;101389.84;4172120;28;20027;-80
2023/05/28 06:26:12;;;;;;;18.02;7.22;;;13.80;99.90;;;13.36;100.00;101377.91;4185377;28;20024;-81
2023/05/28 06:28:13;;;;;;;17.85;7.32;;;13.90;99.90;;;13.58;100.00;101374.72;4175054;28;20021;-80
2023/05/28 06:30:14;;;;;;;17.10;6.68;;;14.00;99.90;;;13.74;100.00;101366.78;4171017;28;20026;-74
2023/05/28 06:32:16;;;;;;;18.10;6.93;;;14.10;99.90;;;13.90;100.00;101377.44;4170867;28;20018;-75
2023/05/28 06:34:16;;;;;;;17.05;6.90;;;14.20;99.90;;;13.86;100.00;101365.50;4170742;28;20485;-74
2023/05/28 06:36:17;;;;;;;19.95;7.75;;;14.30;99.90;;;13.98;100.00;101389.91;4175563;28;20037;-74
2023/05/28 06:38:18;;;;;;;19.05;7.40;;;14.30;99.90;;;13.95;100.00;101375.13;4182565;28;20025;-74
2023/05/28 06:40:20;;;;;;;16.83;6.88;;;14.40;99.90;;;13.79;100.00;101349.44;4178371;28;20033;-74
2023/05/28 06:42:20;;;;;;;23.38;7.72;;;14.40;99.90;;;13.88;100.00;101363.53;4184857;28;20115;-77
2023/05/28 06:44:21;;;;;;;21.63;8.02;;;14.50;99.90;;;14.05;100.00;101382.97;4183293;28;20053;-75
2023/05/28 06:46:23;;;;;;;18.40;7.38;;;14.50;99.90;;;14.05;100.00;101381.13;4174333;28;20049;-74
2023/05/28 06:48:24;;;;;;;19.48;7.50;;;14.60;99.90;;;14.17;100.00;101385.13;4183910;28;20037;-73
2023/05/28 06:50:25;;;;;;;22.00;7.85;;;14.60;99.90;;;14.23;100.00;101379.19;4170580;28;20115;-73
2023/05/28 06:52:27;;;;;;;18.88;8.00;;;14.70;99.90;;;14.20;100.00;101365.41;4174631;28;20036;-73
2023/05/28 06:54:27;;;;;;;19.77;7.78;;;14.80;99.90;;;14.25;100.00;101363.91;4169500;28;20036;-72
2023/05/28 06:56:28;;;;;;;19.52;6.47;;;14.80;99.90;;;14.33;100.00;101369.28;4170146;28;20517;-77
2023/05/28 06:58:29;;;;;;;25.83;8.25;;;14.90;99.90;;;14.39;100.00;101357.97;4180867;28;20033;-74
2023/05/28 07:00:30;;;;;;;23.20;7.45;;;15.00;99.90;;;14.50;100.00;101375.41;4170563;28;20075;-74
2023/05/28 07:02:31;;;;;;;19.30;8.30;;;15.10;99.90;;;14.51;100.00;101363.81;4178774;28;20032;-74
2023/05/28 07:04:32;;;;;;;23.08;7.70;;;15.10;99.90;;;14.61;100.00;101361.78;4186916;28;20087;-73
2023/05/28 07:06:33;;;;;;;23.23;7.25;;;15.20;99.90;;;14.74;100.00;101366.59;4172347;28;20033;-74
2023/05/28 07:08:35;;;;;;;19.33;7.53;;;15.30;99.90;;;14.90;100.00;101358.63;4185405;28;20265;-74
2023/05/28 07:10:36;;;;;;;27.30;8.13;;;15.30;99.90;;;15.06;100.00;101382.47;4185818;28;20025;-74
2023/05/28 07:12:37;;;;;;;19.10;7.65;;;15.40;99.90;;;15.10;100.00;101383.81;4182086;28;20017;-74
2023/05/28 07:14:38;;;;;;;20.73;7.22;;;15.50;99.90;;;14.97;100.00;101356.94;4172943;28;20021;-74
2023/05/28 07:16:40;;;;;;;17.48;7.50;;;15.50;99.90;;;14.95;100.00;101359.78;4169115;28;20378;-74
2023/05/28 07:18:41;;;;;;;17.60;7.47;;;15.60;99.90;;;15.06;100.00;101363.03;4177635;28;20080;-74
2023/05/28 07:20:42;;;;;;;18.33;7.05;;;15.60;99.90;;;15.11;100.00;101352.75;4170222;28;20504;-74
2023/05/28 07:22:43;;;;;;;18.02;7.43;;;15.70;99.90;;;15.20;100.00;101365.81;4174300;28;20040;-73
2023/05/28 07:24:44;;;;;;;21.42;7.45;;;15.80;99.90;;;15.21;100.00;101361.34;4170228;28;20025;-74
2023/05/28 07:26:45;;;;;;;18.23;7.07;;;15.90;99.90;;;15.35;100.00;101356.16;4169535;28;20040;-74
2023/05/28 07:28:46;;;;;;;23.60;8.52;;;16.00;99.90;;;15.53;100.00;101381.72;4166846;28;20014;-73
2023/05/28 07:30:47;;;;;;;17.73;7.07;;;16.00;99.90;;;15.55;100.00;101358.44;4186366;28;20035;-74
2023/05/28 07:32:48;;;;;;;20.98;7.70;;;16.10;99.90;;;15.71;100.00;101372.47;4172771;28;20025;-74
2023/05/28 07:34:49;;;;;;;13.82;6.80;;;16.20;99.90;;;15.75;100.00;101360.50;4168826;28;20516;-74
2023/05/28 07:36:50;;;;;;;18.38;7.07;;;16.30;99.90;;;15.86;100.00;101368.06;4185672;28;20033;-74
2023/05/28 07:38:51;;;;;;;21.48;8.18;;;16.40;99.90;;;15.88;100.00;101360.75;4171540;28;20515;-74
2023/05/28 07:40:52;;;;;;;15.38;6.40;;;16.50;99.90;;;15.93;100.00;101360.22;4172857;28;20088;-74
2023/05/28 07:42:53;;;;;;;20.58;8.35;;;16.60;99.90;;;16.20;100.00;101382.84;4173982;28;20029;-74
2023/05/28 07:44:54;;;;;;;18.13;7.07;;;16.60;99.90;;;16.22;100.00;101371.00;4185551;28;20505;-80
2023/05/28 07:46:55;;;;;;;15.15;7.07;;;16.70;99.90;;;16.29;100.00;101371.13;4185083;28;20025;-79
2023/05/28 07:48:55;;;;;;;20.65;7.88;;;16.80;99.90;;;16.33;100.00;101354.63;4182992;28;20025;-80
2023/05/28 07:50:57;;;;;;;18.00;7.03;;;16.90;99.90;;;16.52;100.00;101374.59;4166075;28;20041;-78
2023/05/28 07:52:58;;;;;;;18.80;6.70;;;17.00;99.90;;;16.55;100.00;101360.97;4171748;28;20090;-79
2023/05/28 07:54:59;;;;;;;15.98;6.88;;;17.10;99.90;;;16.72;100.00;101372.31;4181635;28;20021;-83
2023/05/28 07:57:02;;;;;;;18.13;6.85;;;17.20;99.90;;;16.81;100.00;101371.22;4171266;28;20063;-80
2023/05/28 07:59:04;;;;;;;16.35;7.03;;;17.30;99.90;;;16.94;100.00;101377.56;4156408;28;20025;-78
2023/05/28 08:01:09;;;;;;;21.40;6.70;;;17.40;99.90;;;16.90;100.00;101364.81;4175018;28;20033;-83
2023/05/28 08:03:11;;;;;;;16.73;6.45;;;17.50;99.90;;;17.19;100.00;101375.50;4169451;28;20029;-82
2023/05/28 08:05:12;;;;;;;22.60;6.30;;;17.60;99.90;;;17.30;100.00;101367.03;4163346;28;20561;-77
2023/05/28 08:07:13;;;;;;;19.20;7.43;;;17.70;99.90;;;17.41;100.00;101371.88;4180624;28;20040;-78
2023/05/28 08:09:17;;;;;;;16.98;6.55;;;17.80;99.90;;;17.52;100.00;101368.78;4176443;28;20501;-80
2023/05/28 08:11:18;;;;;;;11.80;5.53;;;17.90;99.90;;;17.65;100.00;101376.94;4182803;28;20033;-80
2023/05/28 08:13:19;;;;;;;19.20;6.80;;;18.00;99.90;;;17.73;100.00;101356.53;4183626;28;20029;-80
2023/05/28 08:15:20;;;;;;;16.50;6.32;;;18.20;99.90;;;17.83;100.00;101365.88;4168478;28;20108;-84